Time;durP1;ratioP1;P1;durP2;ratioP2;P2;SDS_P1;SDS_P2;PMS_P1;PMS_P2;Temp;Humidity;BMP_temperature;BMP_pressure;BME280_temperature;BME280_humidity;BME280_pressure;Samples;Min_cycle;Max_cycle;Signal;HPM_P1;HPM_P2
2023/01/01 00:01:45;;;;;;;10.40;8.23;;;7.90;99.90;;;;;;5060470;28;20206;-77
2023/01/01 00:04:14;;;;;;;9.40;7.95;;;7.90;99.90;;;;;;5062458;28;20229;-79
2023/01/01 00:06:44;;;;;;;8.05;7.22;;;7.90;99.90;;;;;;5047582;28;21013;-79
2023/01/01 00:11:56;;;;;;;8.45;7.47;;;7.90;99.90;;;;;;5061958;28;20787;-77
2023/01/01 00:14:23;;;;;;;9.25;8.27;;;7.90;99.90;;;;;;5060586;28;20409;-79
2023/01/01 00:16:51;;;;;;;9.07;8.10;;;7.90;99.90;;;;;;5065304;28;20723;-76
2023/01/01 00:19:18;;;;;;;8.70;7.80;;;7.90;99.90;;;;;;5058511;28;20204;-77
2023/01/01 00:21:47;;;;;;;9.75;8.23;;;7.80;99.90;;;;;;5061589;28;20195;-76
2023/01/01 00:24:14;;;;;;;8.63;7.72;;;7.80;99.90;;;;;;5059741;28;20225;-77
2023/01/01 00:26:41;;;;;;;8.82;7.97;;;7.80;99.90;;;;;;5061323;28;20201;-77
2023/01/01 00:29:09;;;;;;;7.97;7.25;;;7.80;99.90;;;;;;5063355;28;20202;-77
2023/01/01 00:31:36;;;;;;;8.68;7.78;;;7.80;99.90;;;;;;5058640;28;20222;-77
2023/01/01 00:34:04;;;;;;;9.63;8.48;;;7.90;99.90;;;;;;5050489;28;20577;-77
2023/01/01 00:36:31;;;;;;;8.63;7.82;;;7.90;99.90;;;;;;5064579;28;20217;-78
2023/01/01 00:39:01;;;;;;;9.82;8.35;;;7.80;99.90;;;;;;5066058;28;20202;-78
2023/01/01 00:41:29;;;;;;;8.05;7.25;;;7.80;99.90;;;;;;5066776;28;20872;-78
2023/01/01 00:43:56;;;;;;;8.52;7.72;;;7.80;99.90;;;;;;5067939;28;20628;-79
2023/01/01 00:46:23;;;;;;;7.85;7.15;;;7.80;99.90;;;;;;5067457;28;20727;-83
2023/01/01 00:48:51;;;;;;;7.72;6.95;;;7.90;99.90;;;;;;5053314;28;20213;-83
2023/01/01 00:51:21;;;;;;;7.65;6.88;;;7.90;99.90;;;;;;5070977;28;20295;-81
2023/01/01 00:53:48;;;;;;;6.97;6.28;;;7.90;99.90;;;;;;5070940;28;20206;-78
2023/01/01 00:56:17;;;;;;;6.63;6.03;;;8.00;99.90;;;;;;5071210;28;20221;-77
2023/01/01 00:58:45;;;;;;;6.60;6.00;;;8.00;99.90;;;;;;5066693;28;20209;-78
2023/01/01 01:01:12;;;;;;;6.10;5.50;;;8.00;99.90;;;;;;5064734;28;20340;-78
2023/01/01 01:03:40;;;;;;;6.30;5.70;;;8.00;99.90;;;;;;5062633;28;20229;-78
2023/01/01 01:06:13;;;;;;;6.22;5.63;;;8.00;99.90;;;;;;5043860;28;20283;-79
2023/01/01 01:08:42;;;;;;;6.15;5.55;;;8.10;99.90;;;;;;5062936;28;20647;-78
2023/01/01 01:11:11;;;;;;;6.57;5.97;;;8.00;99.90;;;;;;5063238;28;20214;-79
2023/01/01 01:13:41;;;;;;;6.45;5.80;;;8.00;99.90;;;;;;5060654;28;20214;-78
2023/01/01 01:16:09;;;;;;;6.50;5.90;;;8.00;99.90;;;;;;5064397;28;20214;-80
2023/01/01 01:18:37;;;;;;;7.43;6.20;;;8.00;99.90;;;;;;5069784;28;20736;-78
2023/01/01 01:21:05;;;;;;;6.78;6.18;;;7.90;99.90;;;;;;5067402;28;20226;-79
2023/01/01 01:23:32;;;;;;;6.30;5.57;;;7.90;99.90;;;;;;5068441;28;20218;-78
2023/01/01 01:26:08;;;;;;;6.63;6.00;;;7.90;99.90;;;;;;5066236;28;20210;-79
2023/01/01 01:28:36;;;;;;;6.47;5.88;;;7.90;99.90;;;;;;5062246;28;20207;-81
2023/01/01 01:31:05;;;;;;;5.97;5.38;;;7.90;99.90;;;;;;5044780;28;20221;-78
2023/01/01 01:33:33;;;;;;;6.10;5.45;;;7.90;99.90;;;;;;5059490;28;20222;-79
2023/01/01 01:36:00;;;;;;;6.45;5.85;;;7.90;99.90;;;;;;5059353;28;20226;-78
2023/01/01 01:38:28;;;;;;;6.32;5.72;;;7.90;99.90;;;;;;5063984;28;20191;-78
2023/01/01 01:40:55;;;;;;;6.25;5.65;;;7.90;99.90;;;;;;5064836;28;20230;-80
2023/01/01 01:43:24;;;;;;;6.85;6.18;;;8.00;99.90;;;;;;5066955;28;20279;-78
2023/01/01 01:45:54;;;;;;;6.78;6.18;;;8.00;99.90;;;;;;5064680;28;20221;-77
2023/01/01 01:48:25;;;;;;;6.50;5.90;;;8.00;99.90;;;;;;5044484;28;20194;-78
2023/01/01 01:50:55;;;;;;;6.53;5.93;;;8.00;99.90;;;;;;5067713;28;20210;-78
2023/01/01 01:53:25;;;;;;;6.53;5.93;;;8.00;99.90;;;;;;5063966;28;20219;-80
2023/01/01 01:55:57;;;;;;;6.18;5.68;;;8.00;99.90;;;;;;5068023;28;20218;-84
2023/01/01 01:58:27;;;;;;;5.93;5.40;;;8.00;99.90;;;;;;5067564;28;20228;-78
2023/01/01 02:00:55;;;;;;;5.80;5.30;;;7.90;99.90;;;;;;5050361;28;20272;-78
2023/01/01 02:03:27;;;;;;;5.30;4.90;;;8.00;99.90;;;;;;5061359;28;20224;-78
2023/01/01 02:05:54;;;;;;;6.60;5.90;;;8.00;99.90;;;;;;5066332;28;20240;-78
2023/01/01 02:08:23;;;;;;;6.30;5.38;;;7.90;99.90;;;;;;5065500;28;20275;-78
2023/01/01 02:10:50;;;;;;;6.72;6.05;;;7.90;99.90;;;;;;5048432;28;20214;-79
2023/01/01 02:13:19;;;;;;;5.75;5.20;;;7.90;99.90;;;;;;5064690;28;20225;-78
2023/01/01 02:15:53;;;;;;;5.78;5.20;;;7.90;99.90;;;;;;5069018;28;20911;-79
2023/01/01 02:18:29;;;;;;;5.85;5.32;;;7.90;99.90;;;;;;5070451;28;20190;-78
2023/01/01 02:21:00;;;;;;;7.35;6.65;;;7.90;99.90;;;;;;5051401;28;20220;-82
2023/01/01 02:23:45;;;;;;;9.02;7.78;;;7.80;99.90;;;;;;5063647;28;20316;-79
2023/01/01 02:26:37;;;;;;;9.35;8.38;;;7.80;99.90;;;;;;5034474;28;20438;-79
2023/01/01 02:29:15;;;;;;;9.07;8.15;;;7.70;99.90;;;;;;5050959;28;20195;-79
2023/01/01 02:31:46;;;;;;;9.23;8.32;;;7.60;99.90;;;;;;5066729;28;20233;-78
2023/01/01 02:34:18;;;;;;;9.18;8.05;;;7.60;99.90;;;;;;5063421;28;20222;-79
2023/01/01 02:36:51;;;;;;;8.50;7.45;;;7.60;99.90;;;;;;5043189;28;20548;-78
2023/01/01 02:39:24;;;;;;;8.68;7.78;;;7.60;99.90;;;;;;5062479;28;20198;-79
2023/01/01 02:41:55;;;;;;;7.78;6.93;;;7.60;99.90;;;;;;5063077;28;20202;-82
2023/01/01 02:44:27;;;;;;;7.05;5.97;;;7.70;99.90;;;;;;5063880;28;20222;-78
2023/01/01 02:46:54;;;;;;;7.03;6.43;;;7.70;99.90;;;;;;5062121;28;20195;-80
2023/01/01 02:49:22;;;;;;;8.10;6.82;;;7.80;99.90;;;;;;5065366;28;20203;-78
2023/01/01 02:52:01;;;;;;;7.53;6.82;;;7.80;99.90;;;;;;5067708;28;20676;-78
2023/01/01 02:54:38;;;;;;;8.25;7.45;;;7.80;99.90;;;;;;5065532;28;20214;-78
2023/01/01 02:57:13;;;;;;;10.13;8.95;;;7.70;99.90;;;;;;5065405;28;20285;-78
2023/01/01 03:02:49;;;;;;;10.00;9.00;;;7.60;99.90;;;;;;5065586;28;20673;-78
2023/01/01 03:05:23;;;;;;;10.25;9.23;;;7.50;99.90;;;;;;5058439;28;20222;-78
2023/01/01 03:08:02;;;;;;;11.55;10.35;;;7.60;99.90;;;;;;5048232;28;20252;-78
2023/01/01 03:10:37;;;;;;;12.13;10.15;;;7.60;99.90;;;;;;5050882;28;20225;-78
2023/01/01 03:13:13;;;;;;;11.45;9.75;;;7.50;99.90;;;;;;5069678;28;20194;-78
2023/01/01 03:15:50;;;;;;;10.27;9.02;;;7.40;99.90;;;;;;5066379;28;20218;-78
2023/01/01 03:18:23;;;;;;;11.45;9.50;;;7.40;99.90;;;;;;5068535;28;20273;-77
2023/01/01 03:20:54;;;;;;;9.93;8.85;;;7.40;99.90;;;;;;5063986;28;20846;-77
2023/01/01 03:23:26;;;;;;;11.23;9.98;;;7.40;99.90;;;;;;5066058;28;20313;-77
2023/01/01 03:25:58;;;;;;;10.90;9.30;;;7.40;99.90;;;;;;5068265;28;20233;-85
2023/01/01 03:28:31;;;;;;;12.93;8.85;;;7.40;99.90;;;;;;5053170;28;20667;-77
2023/01/01 03:31:01;;;;;;;10.52;9.25;;;7.50;99.90;;;;;;5067760;28;20221;-79
2023/01/01 03:33:34;;;;;;;10.05;9.05;;;7.50;99.90;;;;;;5065689;28;20703;-77
2023/01/01 03:36:05;;;;;;;9.93;8.85;;;7.50;99.90;;;;;;5068285;28;20221;-78
2023/01/01 03:38:38;;;;;;;9.70;8.70;;;7.50;99.90;;;;;;5070553;28;20206;-77
2023/01/01 03:41:10;;;;;;;9.80;8.75;;;7.50;99.90;;;;;;5067397;28;20222;-78
2023/01/01 03:43:44;;;;;;;9.23;8.30;;;7.50;99.90;;;;;;5063344;28;20223;-78
2023/01/01 03:46:14;;;;;;;9.75;8.85;;;7.50;99.90;;;;;;5067289;28;20221;-78
2023/01/01 03:48:59;;;;;;;9.32;8.40;;;7.60;99.90;;;;;;5065805;28;20195;-77
2023/01/01 03:51:32;;;;;;;8.63;7.80;;;7.60;99.90;;;;;;5050685;28;20226;-77
2023/01/01 03:54:06;;;;;;;9.10;8.20;;;7.50;99.90;;;;;;5060547;28;20834;-77
2023/01/01 03:56:40;;;;;;;9.07;8.18;;;7.50;99.90;;;;;;5067360;28;20966;-77
2023/01/01 03:59:13;;;;;;;8.63;7.75;;;7.50;99.90;;;;;;5065287;28;20269;-77
2023/01/01 04:01:49;;;;;;;8.02;7.25;;;7.50;99.90;;;;;;5061875;28;20229;-77
2023/01/01 04:04:17;;;;;;;7.88;7.05;;;7.50;99.90;;;;;;5065447;28;20224;-78
2023/01/01 04:06:45;;;;;;;8.98;8.07;;;7.60;99.90;;;;;;5065990;28;20206;-78
2023/01/01 04:09:16;;;;;;;8.05;7.25;;;7.60;99.90;;;;;;5051849;28;20806;-80
2023/01/01 04:12:03;;;;;;;7.32;6.63;;;7.60;99.90;;;;;;5050800;28;20203;-78
2023/01/01 04:14:32;;;;;;;7.65;6.55;;;7.60;99.90;;;;;;5065088;28;20279;-77
2023/01/01 04:17:03;;;;;;;8.40;7.57;;;7.60;99.90;;;;;;5049455;28;20225;-77
2023/01/01 04:19:31;;;;;;;7.70;6.95;;;7.60;99.90;;;;;;5065641;28;20223;-78
2023/01/01 04:21:58;;;;;;;6.90;6.28;;;7.60;99.90;;;;;;5049222;28;20546;-78
2023/01/01 04:24:25;;;;;;;6.75;6.15;;;7.60;99.90;;;;;;5052275;28;20221;-78
2023/01/01 04:26:54;;;;;;;7.25;6.55;;;7.60;99.90;;;;;;5065122;28;20203;-78
2023/01/01 04:29:22;;;;;;;6.90;6.28;;;7.60;99.90;;;;;;5060992;28;20663;-79
2023/01/01 04:31:50;;;;;;;7.70;7.00;;;7.60;99.90;;;;;;5072028;28;20572;-78
2023/01/01 04:34:19;;;;;;;8.13;7.32;;;7.50;99.90;;;;;;5065687;28;20217;-79
2023/01/01 04:36:46;;;;;;;7.78;7.03;;;7.50;99.90;;;;;;5062917;28;20200;-79
2023/01/01 04:39:13;;;;;;;9.40;8.50;;;7.50;99.90;;;;;;5066149;28;21170;-79
2023/01/01 04:41:41;;;;;;;9.25;7.78;;;7.50;99.90;;;;;;5064903;28;20288;-77
2023/01/01 04:44:08;;;;;;;8.80;7.90;;;7.50;99.90;;;;;;5047584;28;20218;-77
2023/01/01 04:46:35;;;;;;;8.98;7.65;;;7.50;99.90;;;;;;5056123;28;20291;-78
2023/01/01 04:49:03;;;;;;;9.18;8.23;;;7.50;99.90;;;;;;5071113;28;20556;-77
2023/01/01 04:51:32;;;;;;;8.65;7.85;;;7.40;99.90;;;;;;5059716;28;20214;-78
2023/01/01 04:54:01;;;;;;;7.93;7.20;;;7.50;99.90;;;;;;5060419;28;20222;-79
2023/01/01 04:56:28;;;;;;;8.20;7.32;;;7.50;99.90;;;;;;5064337;28;20206;-78
2023/01/01 04:58:57;;;;;;;7.57;6.78;;;7.50;99.90;;;;;;5065561;28;20202;-78
2023/01/01 05:01:26;;;;;;;8.25;7.45;;;7.50;99.90;;;;;;5061826;28;20587;-77
2023/01/01 05:03:54;;;;;;;8.43;7.63;;;7.60;99.90;;;;;;5065705;28;20281;-78
2023/01/01 05:06:22;;;;;;;9.57;8.30;;;7.60;99.90;;;;;;5062913;28;20217;-77
2023/01/01 05:08:53;;;;;;;8.63;7.72;;;7.50;99.90;;;;;;5064302;28;20198;-77
2023/01/01 05:11:23;;;;;;;8.45;7.65;;;7.50;99.90;;;;;;5055784;28;20223;-77
2023/01/01 05:13:53;;;;;;;8.30;7.50;;;7.50;99.90;;;;;;5066375;28;20222;-77
2023/01/01 05:16:23;;;;;;;8.30;7.50;;;7.50;99.90;;;;;;5061830;28;20217;-77
2023/01/01 05:18:51;;;;;;;7.30;6.60;;;7.40;99.90;;;;;;5048836;28;20676;-77
2023/01/01 05:21:20;;;;;;;7.75;7.05;;;7.50;99.90;;;;;;5062891;28;20232;-77
2023/01/01 05:23:48;;;;;;;8.18;7.38;;;7.50;99.90;;;;;;5062353;28;20231;-77
2023/01/01 05:26:18;;;;;;;7.65;6.85;;;7.50;99.90;;;;;;5044375;28;20226;-77
2023/01/01 05:28:47;;;;;;;7.97;7.03;;;7.50;99.90;;;;;;5065104;28;20201;-77
2023/01/01 05:31:16;;;;;;;7.45;6.75;;;7.50;99.90;;;;;;5061982;28;20648;-77
2023/01/01 05:33:46;;;;;;;7.75;6.95;;;7.50;99.90;;;;;;5065673;28;20214;-80
2023/01/01 05:36:17;;;;;;;8.45;7.13;;;7.50;99.90;;;;;;5042809;28;20296;-80
2023/01/01 05:38:44;;;;;;;8.18;7.38;;;7.40;99.90;;;;;;5050413;28;20214;-77
2023/01/01 05:41:15;;;;;;;7.45;6.75;;;7.40;99.90;;;;;;5059778;28;20222;-77
2023/01/01 05:43:44;;;;;;;9.20;7.60;;;7.40;99.90;;;;;;5050629;28;20222;-78
2023/01/01 05:46:13;;;;;;;7.70;7.00;;;7.40;99.90;;;;;;5061344;28;20222;-81
2023/01/01 05:48:41;;;;;;;7.60;6.57;;;7.40;99.90;;;;;;5066108;28;20205;-77
2023/01/01 05:51:09;;;;;;;7.75;6.95;;;7.40;99.90;;;;;;5065853;28;20268;-78
2023/01/01 05:53:37;;;;;;;7.78;7.00;;;7.40;99.90;;;;;;5036795;28;20273;-77
2023/01/01 05:56:05;;;;;;;7.40;6.70;;;7.40;99.90;;;;;;5060049;28;20214;-79
2023/01/01 05:58:34;;;;;;;7.47;6.70;;;7.40;99.90;;;;;;5069107;28;20221;-77
2023/01/01 06:01:08;;;;;;;6.93;6.22;;;7.40;99.90;;;;;;5061826;28;20218;-77
2023/01/01 06:03:36;;;;;;;7.00;6.40;;;7.50;99.90;;;;;;5068236;28;20221;-77
2023/01/01 06:06:05;;;;;;;6.43;5.82;;;7.50;99.90;;;;;;5065599;28;20219;-77
2023/01/01 06:08:33;;;;;;;6.07;5.47;;;7.50;99.90;;;;;;5061971;28;20669;-77
2023/01/01 06:11:01;;;;;;;7.07;6.47;;;7.50;99.90;;;;;;5062189;28;20221;-77
2023/01/01 06:13:29;;;;;;;6.20;5.60;;;7.50;99.90;;;;;;5059156;28;20215;-77
2023/01/01 06:15:58;;;;;;;5.80;5.30;;;7.50;99.90;;;;;;5066633;28;20214;-80
2023/01/01 06:18:30;;;;;;;5.80;5.30;;;7.50;99.90;;;;;;5048458;28;20244;-77
2023/01/01 06:21:05;;;;;;;6.85;6.25;;;7.50;99.90;;;;;;5062104;28;20278;-77
2023/01/01 06:23:32;;;;;;;6.78;6.10;;;7.40;99.90;;;;;;5064461;28;20320;-77
2023/01/01 06:26:08;;;;;;;6.93;6.32;;;7.40;99.90;;;;;;5046993;28;20219;-77
2023/01/01 06:28:36;;;;;;;6.82;6.15;;;7.50;99.90;;;;;;5065360;28;20194;-78
2023/01/01 06:31:05;;;;;;;6.28;5.68;;;7.50;99.90;;;;;;5070553;28;20219;-77
2023/01/01 06:33:35;;;;;;;6.13;5.63;;;7.50;99.90;;;;;;5052758;28;20222;-77
2023/01/01 06:36:04;;;;;;;6.20;5.63;;;7.50;99.90;;;;;;5031578;28;20275;-77
2023/01/01 06:38:32;;;;;;;6.55;5.95;;;7.50;99.90;;;;;;5071396;28;20635;-77
2023/01/01 06:41:01;;;;;;;6.47;5.88;;;7.50;99.90;;;;;;5038420;28;20223;-78
2023/01/01 06:43:31;;;;;;;6.38;5.78;;;7.50;99.90;;;;;;5063904;28;20687;-77
2023/01/01 06:46:03;;;;;;;5.85;5.35;;;7.50;99.90;;;;;;5053513;28;20222;-77
2023/01/01 06:48:33;;;;;;;5.88;5.38;;;7.50;99.90;;;;;;5066716;28;20194;-77
2023/01/01 06:51:06;;;;;;;6.55;5.95;;;7.60;99.90;;;;;;5064231;28;20218;-77
2023/01/01 06:53:33;;;;;;;6.50;5.90;;;7.50;99.90;;;;;;5067788;28;20277;-78
2023/01/01 06:56:01;;;;;;;6.72;6.13;;;7.60;99.90;;;;;;5068462;28;20206;-77
2023/01/01 06:58:28;;;;;;;7.72;6.93;;;7.50;99.90;;;;;;5062032;28;20205;-78
2023/01/01 07:01:02;;;;;;;8.18;7.32;;;7.50;99.90;;;;;;5047276;28;20219;-77
2023/01/01 07:03:30;;;;;;;7.75;6.65;;;7.50;99.90;;;;;;5069866;28;20217;-77
2023/01/01 07:05:57;;;;;;;7.07;6.32;;;7.40;99.90;;;;;;5064810;28;20272;-80
2023/01/01 07:08:26;;;;;;;6.97;6.35;;;7.40;99.90;;;;;;5069027;28;20190;-79
2023/01/01 07:10:56;;;;;;;6.80;6.20;;;7.50;99.90;;;;;;5063608;28;20226;-77
2023/01/01 07:13:24;;;;;;;6.30;5.75;;;7.50;99.90;;;;;;5068082;28;20211;-78
2023/01/01 07:15:52;;;;;;;7.75;7.05;;;7.50;99.90;;;;;;5064998;28;20254;-77
2023/01/01 07:18:19;;;;;;;7.45;6.75;;;7.50;99.90;;;;;;5069495;28;20198;-77
2023/01/01 07:20:51;;;;;;;8.57;7.78;;;7.50;99.90;;;;;;5045808;28;20218;-79
2023/01/01 07:23:18;;;;;;;8.65;7.85;;;7.50;99.90;;;;;;5049316;28;20710;-78
2023/01/01 07:25:49;;;;;;;7.93;7.18;;;7.50;99.90;;;;;;5062453;28;20597;-79
2023/01/01 07:28:16;;;;;;;7.20;6.57;;;7.50;99.90;;;;;;5069281;28;20710;-78
2023/01/01 07:30:45;;;;;;;7.30;6.70;;;7.50;99.90;;;;;;5067820;28;20563;-78
2023/01/01 07:33:12;;;;;;;6.45;5.85;;;7.50;99.90;;;;;;5074397;28;20233;-81
2023/01/01 07:35:40;;;;;;;10.38;8.80;;;7.50;99.90;;;;;;5071415;28;20222;-79
2023/01/01 07:38:08;;;;;;;10.25;9.25;;;7.60;99.90;;;;;;5067236;28;20202;-79
2023/01/01 07:40:36;;;;;;;10.38;8.90;;;7.50;99.90;;;;;;5065049;28;20283;-78
2023/01/01 07:43:05;;;;;;;9.15;8.25;;;7.50;99.90;;;;;;5067688;28;20251;-77
2023/01/01 07:45:33;;;;;;;8.95;8.05;;;7.50;99.90;;;;;;5046599;28;20230;-78
2023/01/01 07:48:01;;;;;;;8.35;7.53;;;7.60;99.90;;;;;;5062844;28;20198;-77
2023/01/01 07:50:31;;;;;;;7.03;6.32;;;7.70;99.90;;;;;;5051264;28;20214;-78
2023/01/01 07:52:59;;;;;;;7.13;6.40;;;7.70;99.90;;;;;;5067503;28;20206;-79
2023/01/01 07:55:27;;;;;;;7.30;6.60;;;7.70;99.90;;;;;;5064030;28;20215;-78
2023/01/01 07:57:54;;;;;;;8.88;7.97;;;7.80;99.90;;;;;;5068570;28;20617;-78
2023/01/01 08:00:24;;;;;;;7.65;6.70;;;7.80;99.90;;;;;;5067549;28;20268;-76
2023/01/01 08:02:51;;;;;;;7.30;6.60;;;7.80;99.90;;;;;;5066714;28;20755;-77
2023/01/01 08:05:19;;;;;;;7.45;6.70;;;7.90;99.90;;;;;;5065190;28;20227;-77
2023/01/01 08:07:47;;;;;;;8.73;7.82;;;7.90;99.90;;;;;;5067649;28;20218;-78
2023/01/01 08:10:16;;;;;;;10.23;8.73;;;7.80;99.90;;;;;;5063759;28;20218;-78
2023/01/01 08:12:44;;;;;;;9.80;8.80;;;7.80;99.90;;;;;;5063134;28;20199;-77
2023/01/01 08:15:13;;;;;;;10.00;8.40;;;7.80;99.90;;;;;;5064599;28;20210;-80
2023/01/01 08:17:42;;;;;;;8.95;8.15;;;7.70;99.90;;;;;;5068966;28;20710;-79
2023/01/01 08:20:10;;;;;;;9.48;8.50;;;7.70;99.90;;;;;;5060866;28;20230;-78
2023/01/01 08:22:38;;;;;;;9.50;8.50;;;7.70;99.90;;;;;;5059356;28;20213;-77
2023/01/01 08:25:07;;;;;;;9.95;8.95;;;7.70;99.90;;;;;;5061789;28;20229;-76
2023/01/01 08:27:35;;;;;;;9.55;8.48;;;7.80;99.90;;;;;;5059076;28;20225;-77
2023/01/01 08:30:02;;;;;;;9.27;8.38;;;7.70;99.90;;;;;;5062669;28;20253;-77
2023/01/01 08:32:32;;;;;;;9.45;8.55;;;7.80;99.90;;;;;;5046315;28;20207;-79
2023/01/01 08:35:01;;;;;;;9.50;8.50;;;7.80;99.90;;;;;;5035173;28;20226;-80
2023/01/01 08:37:29;;;;;;;9.07;8.18;;;7.90;99.90;;;;;;5061481;28;20692;-77
2023/01/01 08:39:56;;;;;;;9.73;8.73;;;8.00;99.90;;;;;;5047226;28;20222;-79
2023/01/01 08:42:24;;;;;;;9.20;8.30;;;8.10;99.90;;;;;;5065586;28;20186;-78
2023/01/01 08:44:51;;;;;;;9.50;8.50;;;8.10;99.90;;;;;;5061449;28;20684;-78
2023/01/01 08:47:20;;;;;;;10.82;9.45;;;8.20;99.90;;;;;;5063629;28;20226;-78
2023/01/01 08:49:47;;;;;;;10.30;8.95;;;8.20;99.90;;;;;;5065070;28;20222;-78
2023/01/01 08:52:16;;;;;;;9.10;8.20;;;8.20;99.90;;;;;;5063424;28;20209;-78
2023/01/01 08:54:46;;;;;;;8.77;7.70;;;8.20;99.90;;;;;;5063761;28;20230;-78
2023/01/01 08:57:13;;;;;;;9.98;8.63;;;8.20;99.90;;;;;;5066208;28;20656;-78
2023/01/01 08:59:41;;;;;;;10.07;9.07;;;8.30;99.90;;;;;;5063872;28;20226;-77
2023/01/01 09:02:09;;;;;;;10.30;8.98;;;8.40;99.90;;;;;;5064753;28;20191;-77
2023/01/01 09:04:37;;;;;;;10.43;9.38;;;8.40;99.90;;;;;;5062438;28;20229;-77
2023/01/01 09:07:05;;;;;;;11.18;10.05;;;8.40;99.90;;;;;;5050864;28;20215;-78
2023/01/01 09:09:34;;;;;;;11.20;10.05;;;8.50;99.90;;;;;;5048066;28;20594;-77
2023/01/01 09:12:05;;;;;;;15.32;12.05;;;8.50;99.90;;;;;;5044310;28;20222;-78
2023/01/01 09:14:33;;;;;;;11.38;10.20;;;8.50;99.90;;;;;;5055849;28;20237;-77
2023/01/01 09:17:00;;;;;;;11.75;10.52;;;8.50;99.90;;;;;;5062370;28;20198;-77
2023/01/01 09:19:28;;;;;;;10.60;9.45;;;8.50;99.90;;;;;;5068035;28;20554;-78
2023/01/01 09:21:56;;;;;;;12.50;10.70;;;8.50;99.90;;;;;;5067393;28;20663;-77
2023/01/01 09:24:24;;;;;;;11.95;10.73;;;8.50;99.90;;;;;;5062252;28;20595;-77
2023/01/01 09:26:53;;;;;;;11.18;10.00;;;8.50;99.90;;;;;;5060966;28;20219;-78
2023/01/01 09:29:21;;;;;;;11.50;10.35;;;8.40;99.90;;;;;;5064492;28;20207;-77
2023/01/01 09:31:48;;;;;;;10.23;9.23;;;8.40;99.90;;;;;;5069860;28;20627;-77
2023/01/01 09:34:16;;;;;;;10.15;9.07;;;8.40;99.90;;;;;;5059576;28;20703;-77
2023/01/01 09:36:44;;;;;;;10.63;9.45;;;8.60;99.90;;;;;;5062364;28;20196;-78
2023/01/01 09:39:13;;;;;;;11.55;9.73;;;8.80;99.90;;;;;;5059944;28;20253;-79
2023/01/01 09:42:03;;;;;;;10.23;9.23;;;8.90;99.90;;;;;;5062862;28;20682;-79
2023/01/01 09:44:47;;;;;;;11.48;10.38;;;9.10;99.90;;;;;;5060258;28;20227;-81
2023/01/01 09:47:27;;;;;;;10.55;9.55;;;9.30;99.90;;;;;;5063078;28;20215;-80
2023/01/01 09:50:00;;;;;;;10.65;9.63;;;9.50;99.90;;;;;;5059269;28;20230;-82
2023/01/01 09:52:36;;;;;;;10.43;9.35;;;9.60;99.90;;;;;;5063451;28;20209;-82
2023/01/01 09:55:11;;;;;;;9.98;8.98;;;10.00;99.90;;;;;;5064716;28;20221;-85
2023/01/01 09:57:40;;;;;;;11.00;9.70;;;10.10;99.90;;;;;;5065402;28;20663;-80
2023/01/01 10:00:15;;;;;;;12.07;9.77;;;10.20;99.90;;;;;;5065923;28;20218;-78
2023/01/01 10:03:06;;;;;;;12.18;10.93;;;10.30;99.90;;;;;;5063901;28;20599;-84
2023/01/01 10:05:44;;;;;;;12.82;11.52;;;10.30;99.90;;;;;;5064307;28;20225;-84
2023/01/01 10:08:23;;;;;;;11.75;10.55;;;10.30;99.90;;;;;;5042805;28;20227;-82
2023/01/01 10:10:57;;;;;;;13.15;11.77;;;10.30;99.90;;;;;;5041254;28;20320;-85
2023/01/01 10:13:34;;;;;;;12.32;11.02;;;10.20;99.90;;;;;;5063669;28;20228;-84
2023/01/01 10:16:05;;;;;;;15.13;12.63;;;10.10;99.90;;;;;;5062670;28;20634;-85
2023/01/01 10:18:37;;;;;;;15.00;12.95;;;10.20;99.90;;;;;;5049978;28;20596;-80
2023/01/01 10:21:12;;;;;;;17.27;14.32;;;10.20;99.90;;;;;;5063978;28;20218;-83
2023/01/01 10:23:43;;;;;;;15.02;13.50;;;10.20;99.90;;;;;;5060688;28;20230;-85
2023/01/01 10:26:15;;;;;;;14.65;13.13;;;10.20;99.90;;;;;;5060509;28;20710;-80
2023/01/01 10:28:52;;;;;;;14.43;12.93;;;10.20;99.90;;;;;;5064971;28;20217;-83
2023/01/01 10:31:28;;;;;;;15.73;13.77;;;10.20;99.90;;;;;;5060097;28;20252;-81
2023/01/01 10:33:56;;;;;;;15.55;13.48;;;10.20;99.90;;;;;;5056863;28;20210;-81
2023/01/01 10:36:24;;;;;;;14.05;12.57;;;10.20;99.90;;;;;;5060858;28;20223;-78
2023/01/01 10:38:52;;;;;;;15.38;13.77;;;10.30;99.90;;;;;;5068872;28;20625;-80
2023/01/01 10:41:21;;;;;;;14.80;13.30;;;10.20;99.90;;;;;;5061248;28;20226;-79
2023/01/01 10:43:51;;;;;;;17.58;13.57;;;10.20;99.90;;;;;;5037870;28;20221;-77
2023/01/01 10:46:22;;;;;;;16.42;14.02;;;10.20;99.90;;;;;;5061028;28;20225;-78
2023/01/01 10:49:06;;;;;;;16.00;12.90;;;10.10;99.90;;;;;;5052672;28;20275;-78
2023/01/01 10:51:36;;;;;;;15.23;13.63;;;10.10;99.90;;;;;;5065056;28;20696;-78
2023/01/01 10:54:04;;;;;;;14.93;13.32;;;10.10;99.90;;;;;;5046990;28;20268;-80
2023/01/01 10:56:42;;;;;;;18.27;14.07;;;10.20;99.90;;;;;;5060985;28;20741;-77
2023/01/01 10:59:36;;;;;;;13.95;12.32;;;10.30;99.90;;;;;;5060900;28;20194;-78
2023/01/01 11:02:20;;;;;;;17.77;14.50;;;10.40;99.90;;;;;;5062854;28;20291;-77
2023/01/01 11:04:48;;;;;;;15.85;12.80;;;10.40;99.90;;;;;;5055400;28;20222;-77
2023/01/01 11:07:30;;;;;;;15.32;13.73;;;10.50;99.90;;;;;;5041621;28;20233;-78
2023/01/01 11:10:01;;;;;;;16.23;13.45;;;10.50;99.90;;;;;;5059820;28;20282;-77
2023/01/01 11:12:33;;;;;;;16.25;14.10;;;10.40;99.90;;;;;;5049344;28;20252;-78
2023/01/01 11:15:04;;;;;;;17.13;13.68;;;10.40;99.90;;;;;;5052344;28;20264;-77
2023/01/01 11:17:34;;;;;;;14.38;12.32;;;10.40;99.90;;;;;;5065562;28;20190;-77
2023/01/01 11:20:03;;;;;;;14.23;12.70;;;10.40;99.90;;;;;;5068771;28;20223;-77
2023/01/01 11:22:42;;;;;;;14.52;12.75;;;10.40;99.90;;;;;;5062425;28;20214;-77
2023/01/01 11:25:22;;;;;;;15.80;12.63;;;10.40;99.90;;;;;;5062095;28;20217;-78
2023/01/01 11:27:50;;;;;;;15.80;13.05;;;10.40;99.90;;;;;;5067210;28;20222;-77
2023/01/01 11:30:26;;;;;;;13.25;11.50;;;10.30;99.90;;;;;;5048069;28;20260;-77
2023/01/01 11:32:58;;;;;;;16.83;14.98;;;10.30;99.90;;;;;;5069054;28;20225;-77
2023/01/01 11:35:29;;;;;;;15.45;12.55;;;10.30;99.90;;;;;;5061698;28;20272;-78
2023/01/01 11:37:58;;;;;;;14.70;12.35;;;10.30;99.90;;;;;;5047160;28;20191;-78
2023/01/01 11:40:31;;;;;;;15.25;12.75;;;10.30;99.90;;;;;;5065398;28;20812;-78
2023/01/01 11:43:01;;;;;;;15.25;12.95;;;10.30;99.90;;;;;;5053592;28;20206;-78
2023/01/01 11:45:33;;;;;;;15.77;13.45;;;10.30;99.90;;;;;;5061223;28;20218;-77
2023/01/01 11:48:04;;;;;;;14.32;12.82;;;10.30;99.90;;;;;;5073681;28;20256;-79
2023/01/01 11:50:35;;;;;;;14.63;13.07;;;10.20;99.90;;;;;;5047910;28;20214;-78
2023/01/01 11:53:18;;;;;;;15.27;13.15;;;10.20;99.90;;;;;;5050257;28;20252;-78
2023/01/01 11:55:49;;;;;;;13.48;12.02;;;10.10;99.90;;;;;;5065018;28;20222;-79
2023/01/01 11:58:22;;;;;;;13.85;12.40;;;10.10;99.90;;;;;;5067276;28;20608;-79
2023/01/01 12:00:57;;;;;;;13.25;11.85;;;10.20;99.90;;;;;;5058720;28;20591;-78
2023/01/01 12:03:30;;;;;;;12.93;11.60;;;10.20;99.90;;;;;;5068116;28;20766;-78
2023/01/01 12:06:03;;;;;;;13.35;11.35;;;10.30;99.90;;;;;;5064550;28;20218;-78
2023/01/01 12:08:37;;;;;;;13.27;11.95;;;10.30;99.90;;;;;;5060114;28;20301;-78
2023/01/01 12:11:12;;;;;;;13.30;11.93;;;10.40;99.90;;;;;;5065073;28;20221;-78
2023/01/01 12:13:49;;;;;;;12.85;11.48;;;10.50;99.90;;;;;;5049833;28;20221;-78
2023/01/01 12:16:22;;;;;;;13.45;10.93;;;10.60;99.90;;;;;;5063917;28;20220;-78
2023/01/01 12:19:00;;;;;;;15.40;12.18;;;10.70;99.90;;;;;;5068048;28;20198;-79
2023/01/01 12:21:31;;;;;;;13.20;11.80;;;10.70;99.90;;;;;;5047435;28;20225;-78
2023/01/01 12:23:58;;;;;;;13.05;11.70;;;10.70;99.90;;;;;;5064045;28;20303;-79
2023/01/01 12:26:29;;;;;;;13.85;11.55;;;10.70;99.90;;;;;;5067941;28;20218;-79
2023/01/01 12:29:24;;;;;;;12.93;11.50;;;10.70;99.90;;;;;;5036105;28;20296;-78
2023/01/01 12:32:03;;;;;;;13.52;12.15;;;10.60;99.90;;;;;;5061675;28;20287;-78
2023/01/01 12:34:37;;;;;;;12.18;10.88;;;10.60;99.90;;;;;;5067619;28;20230;-79
2023/01/01 12:37:14;;;;;;;12.80;11.50;;;10.50;99.90;;;;;;5033671;28;20290;-79
2023/01/01 12:40:21;;;;;;;12.40;11.02;;;10.50;99.90;;;;;;5069065;28;20943;-78
2023/01/01 12:43:01;;;;;;;15.80;11.55;;;10.60;99.90;;;;;;5067975;28;20202;-78
2023/01/01 12:46:07;;;;;;;12.98;10.85;;;10.60;99.90;;;;;;5067647;28;20238;-78
2023/01/01 12:48:48;;;;;;;13.07;10.52;;;10.70;99.90;;;;;;5069479;28;20292;-78
2023/01/01 12:51:31;;;;;;;13.20;10.98;;;10.70;99.90;;;;;;5057377;28;20282;-78
2023/01/01 12:54:26;;;;;;;12.95;10.65;;;10.80;99.90;;;;;;5078482;28;20214;-81
2023/01/01 12:57:01;;;;;;;13.90;11.10;;;10.80;99.90;;;;;;5075967;28;20211;-81
2023/01/01 12:59:32;;;;;;;13.07;11.00;;;10.80;99.90;;;;;;5074017;28;20192;-79
2023/01/01 13:02:03;;;;;;;12.40;11.15;;;10.80;99.90;;;;;;5068441;28;20194;-77
2023/01/01 13:04:32;;;;;;;16.48;11.27;;;10.70;99.90;;;;;;5065212;28;20241;-79
2023/01/01 13:07:07;;;;;;;12.35;11.05;;;10.70;99.90;;;;;;5066735;28;20634;-81
2023/01/01 13:09:37;;;;;;;14.95;12.40;;;10.50;99.90;;;;;;5068037;28;20226;-79
2023/01/01 13:12:08;;;;;;;12.68;10.75;;;10.40;99.90;;;;;;5066292;28;20217;-78
2023/01/01 13:14:40;;;;;;;12.20;10.90;;;10.30;99.90;;;;;;5063604;28;20846;-80